Time;durP1;ratioP1;P1;durP2;ratioP2;P2;SDS_P1;SDS_P2;PMS_P1;PMS_P2;Temp;Humidity;BMP_temperature;BMP_pressure;BME280_temperature;BME280_humidity;BME280_pressure;Samples;Min_cycle;Max_cycle;Signal;HPM_P1;HPM_P2
2024/03/11 00:01:44;;;;;;;;;;;;;;;10.75;87.55;95421.80;111635;1249;22471;-87
2024/03/11 00:04:10;;;;;;;;;;;;;;;10.75;87.44;95414.13;111611;1249;25209;-88
2024/03/11 00:06:39;;;;;;;;;;;;;;;10.75;87.67;95410.77;111608;1249;22516;-89
2024/03/11 00:09:15;;;;;;;;;;;;;;;10.76;87.29;95414.80;111489;1249;22514;-88
2024/03/11 00:11:48;;;;;;;;;;;;;;;10.82;87.02;95415.44;111603;1247;22518;-88
2024/03/11 00:14:18;;;;;;;;;;;;;;;10.85;87.06;95406.23;111722;1249;25349;-88
2024/03/11 00:16:46;;;;;;;;;;;;;;;10.86;86.81;95408.91;111606;1249;25352;-88
2024/03/11 00:19:12;;;;;;;;;;;;;;;10.85;86.59;95408.98;111754;1249;22519;-88
2024/03/11 00:21:37;;;;;;;;;;;;;;;10.87;86.36;95408.38;111711;1249;22475;-88
2024/03/11 00:24:03;;;;;;;;;;;;;;;10.87;86.45;95404.81;111525;1249;23347;-88
2024/03/11 00:26:29;;;;;;;;;;;;;;;10.87;86.40;95407.54;111490;1249;23309;-88
2024/03/11 00:28:55;;;;;;;;;;;;;;;10.87;86.34;95403.49;111524;1249;22504;-89
2024/03/11 00:31:27;;;;;;;;;;;;;;;10.86;86.19;95397.63;111605;1247;23524;-88
2024/03/11 00:33:53;;;;;;;;;;;;;;;10.87;85.82;95396.10;111638;1249;22482;-88
2024/03/11 00:36:20;;;;;;;;;;;;;;;10.93;85.82;95390.89;111728;1246;22478;-88
2024/03/11 00:38:46;;;;;;;;;;;;;;;10.96;85.86;95396.83;111733;1249;22509;-89
2024/03/11 00:41:12;;;;;;;;;;;;;;;11.00;85.69;95393.73;111508;1249;25164;-88
2024/03/11 00:43:38;;;;;;;;;;;;;;;11.00;85.98;95399.84;111599;1249;22929;-89
2024/03/11 00:46:04;;;;;;;;;;;;;;;10.98;85.67;95392.34;111493;1248;22472;-88
2024/03/11 00:48:29;;;;;;;;;;;;;;;11.02;85.88;95397.67;111542;1249;24199;-89
2024/03/11 00:50:55;;;;;;;;;;;;;;;11.05;85.54;95390.93;111740;1249;22508;-88
2024/03/11 00:53:21;;;;;;;;;;;;;;;11.08;85.47;95384.22;111706;1246;25434;-85
2024/03/11 00:55:47;;;;;;;;;;;;;;;11.07;85.10;95370.95;111720;1249;22477;-86
2024/03/11 00:58:13;;;;;;;;;;;;;;;11.06;84.95;95372.78;111690;1249;23264;-85
2024/03/11 01:00:39;;;;;;;;;;;;;;;11.06;84.79;95360.89;111704;1249;22524;-85
2024/03/11 01:03:06;;;;;;;;;;;;;;;11.04;84.88;95353.14;111622;1247;22936;-86
2024/03/11 01:05:32;;;;;;;;;;;;;;;11.02;84.82;95354.20;111626;1249;22544;-86
2024/03/11 01:07:58;;;;;;;;;;;;;;;10.99;84.88;95355.38;111629;1249;22501;-85
2024/03/11 01:10:23;;;;;;;;;;;;;;;11.00;84.88;95349.38;111582;1249;22528;-86
2024/03/11 01:12:49;;;;;;;;;;;;;;;11.02;84.73;95348.40;111455;1247;22541;-85
2024/03/11 01:15:15;;;;;;;;;;;;;;;11.04;84.49;95347.62;111499;1248;25065;-85
2024/03/11 01:17:41;;;;;;;;;;;;;;;11.07;84.49;95354.55;111607;1248;25233;-85
2024/03/11 01:20:09;;;;;;;;;;;;;;;11.08;84.31;95355.98;111438;1249;22501;-85
2024/03/11 01:22:35;;;;;;;;;;;;;;;11.08;84.10;95348.86;111488;1249;22507;-86
2024/03/11 01:25:01;;;;;;;;;;;;;;;11.07;84.28;95354.98;111528;1249;22477;-85
2024/03/11 01:27:27;;;;;;;;;;;;;;;11.07;84.39;95350.02;111600;1247;25361;-85
2024/03/11 01:29:52;;;;;;;;;;;;;;;11.07;84.32;95347.79;111453;1249;25123;-85
2024/03/11 01:32:18;;;;;;;;;;;;;;;11.05;84.24;95343.77;111474;1249;22470;-85
2024/03/11 01:34:44;;;;;;;;;;;;;;;11.05;84.19;95336.85;111596;1249;22545;-85
2024/03/11 01:37:11;;;;;;;;;;;;;;;11.06;84.25;95340.06;111584;1248;22436;-85
2024/03/11 01:39:43;;;;;;;;;;;;;;;11.05;84.30;95330.90;111485;1249;22564;-85
2024/03/11 01:42:15;;;;;;;;;;;;;;;11.04;84.05;95333.66;111643;1248;23258;-85
2024/03/11 01:44:45;;;;;;;;;;;;;;;11.08;83.90;95327.02;111579;1249;23551;-86
2024/03/11 01:47:11;;;;;;;;;;;;;;;11.09;83.99;95319.98;111496;1248;22590;-85
2024/03/11 01:49:38;;;;;;;;;;;;;;;11.10;84.04;95319.61;111640;1249;22519;-85
2024/03/11 01:52:04;;;;;;;;;;;;;;;11.11;83.90;95314.20;111605;1248;23196;-85
2024/03/11 01:54:31;;;;;;;;;;;;;;;11.13;83.98;95313.42;111686;1246;24795;-86
2024/03/11 01:56:57;;;;;;;;;;;;;;;11.12;83.95;95313.08;111692;1249;22519;-85
2024/03/11 01:59:22;;;;;;;;;;;;;;;11.11;84.17;95314.76;111590;1249;22506;-85
2024/03/11 02:01:48;;;;;;;;;;;;;;;11.11;84.00;95314.08;111484;1248;22979;-86
2024/03/11 02:04:14;;;;;;;;;;;;;;;11.10;84.42;95313.38;111640;1247;22482;-85
2024/03/11 02:06:41;;;;;;;;;;;;;;;11.08;84.07;95311.07;111680;1249;22580;-85
2024/03/11 02:09:08;;;;;;;;;;;;;;;11.09;84.00;95296.86;111511;1249;22560;-85
2024/03/11 02:11:33;;;;;;;;;;;;;;;11.08;84.03;95298.66;111658;1248;22432;-85
2024/03/11 02:13:59;;;;;;;;;;;;;;;11.07;84.32;95293.11;111460;1248;22516;-85
2024/03/11 02:16:26;;;;;;;;;;;;;;;11.05;84.37;95301.67;111597;1249;22605;-85
2024/03/11 02:18:52;;;;;;;;;;;;;;;11.03;83.86;95307.56;111626;1249;22463;-85
2024/03/11 02:21:18;;;;;;;;;;;;;;;11.04;83.89;95316.23;111647;1249;23992;-86
2024/03/11 02:23:43;;;;;;;;;;;;;;;11.05;84.29;95323.70;111593;1249;22510;-85
2024/03/11 02:26:10;;;;;;;;;;;;;;;11.03;84.15;95324.88;111491;1249;23025;-85
2024/03/11 02:28:35;;;;;;;;;;;;;;;11.01;84.42;95329.96;111646;1249;22522;-85
2024/03/11 02:31:01;;;;;;;;;;;;;;;11.00;84.52;95329.21;111471;1249;22510;-85
2024/03/11 02:33:27;;;;;;;;;;;;;;;11.00;84.41;95325.90;111628;1246;22463;-85
2024/03/11 02:35:53;;;;;;;;;;;;;;;10.99;84.55;95320.43;111599;1249;22473;-85
2024/03/11 02:38:19;;;;;;;;;;;;;;;10.97;84.67;95312.09;111485;1249;22928;-85
2024/03/11 02:40:44;;;;;;;;;;;;;;;10.96;84.19;95308.58;111423;1249;22472;-85
2024/03/11 02:43:10;;;;;;;;;;;;;;;10.98;84.41;95302.64;111611;1249;22453;-86
2024/03/11 02:45:36;;;;;;;;;;;;;;;10.97;84.63;95293.17;111747;1249;22671;-85
2024/03/11 02:48:02;;;;;;;;;;;;;;;10.95;84.51;95273.73;111645;1249;22568;-86
2024/03/11 02:50:27;;;;;;;;;;;;;;;10.96;84.78;95259.11;111471;1249;22524;-85
2024/03/11 02:52:53;;;;;;;;;;;;;;;10.96;84.95;95266.59;111680;1249;22479;-86
2024/03/11 02:55:21;;;;;;;;;;;;;;;10.94;85.34;95265.09;111672;1245;23727;-85
2024/03/11 02:57:48;;;;;;;;;;;;;;;10.95;84.91;95260.92;111454;1249;22483;-86
2024/03/11 03:00:15;;;;;;;;;;;;;;;11.01;84.78;95262.63;111466;1249;23150;-85
2024/03/11 03:02:42;;;;;;;;;;;;;;;11.03;85.33;95274.29;111706;1249;22516;-86
2024/03/11 03:05:08;;;;;;;;;;;;;;;11.03;85.37;95279.80;111474;1249;25357;-85
2024/03/11 03:07:35;;;;;;;;;;;;;;;11.05;85.08;95261.35;111643;1249;22505;-89
2024/03/11 03:10:02;;;;;;;;;;;;;;;11.08;85.16;95282.19;111641;1249;22481;-89
2024/03/11 03:12:29;;;;;;;;;;;;;;;11.11;84.96;95272.60;111586;1249;22903;-89
2024/03/11 03:14:56;;;;;;;;;;;;;;;11.12;85.08;95256.77;111688;1249;22687;-89
2024/03/11 03:17:22;;;;;;;;;;;;;;;11.13;85.05;95268.74;111643;1248;22525;-88
2024/03/11 03:19:48;;;;;;;;;;;;;;;11.14;84.88;95270.80;111658;1249;22480;-88
2024/03/11 03:22:14;;;;;;;;;;;;;;;11.16;84.94;95260.88;111453;1249;22503;-88
2024/03/11 03:24:40;;;;;;;;;;;;;;;11.14;84.62;95261.77;111619;1249;23347;-88
2024/03/11 03:27:08;;;;;;;;;;;;;;;11.14;85.04;95270.09;111622;1249;22498;-89
2024/03/11 03:29:39;;;;;;;;;;;;;;;11.14;84.20;95257.30;111691;1249;22535;-88
2024/03/11 03:32:09;;;;;;;;;;;;;;;11.17;84.45;95254.83;111629;1249;22496;-88
2024/03/11 03:34:34;;;;;;;;;;;;;;;11.19;84.16;95262.54;111688;1249;25368;-89
2024/03/11 03:37:00;;;;;;;;;;;;;;;11.22;84.08;95261.22;111608;1249;25844;-88
2024/03/11 03:39:26;;;;;;;;;;;;;;;11.24;83.66;95260.31;111598;1248;22499;-89
2024/03/11 03:41:52;;;;;;;;;;;;;;;11.29;83.51;95261.86;111474;1248;22507;-89
2024/03/11 03:44:18;;;;;;;;;;;;;;;11.29;83.84;95266.70;111598;1249;22570;-88
2024/03/11 03:46:44;;;;;;;;;;;;;;;11.28;84.08;95257.88;111667;1248;23184;-89
2024/03/11 03:49:09;;;;;;;;;;;;;;;11.24;84.05;95269.35;111592;1249;23842;-88
2024/03/11 03:51:35;;;;;;;;;;;;;;;11.24;83.93;95273.63;111680;1249;22517;-88
2024/03/11 03:54:01;;;;;;;;;;;;;;;11.25;83.86;95268.41;111666;1249;22528;-88
2024/03/11 03:56:26;;;;;;;;;;;;;;;11.26;84.23;95282.02;111621;1249;25245;-88
2024/03/11 03:58:52;;;;;;;;;;;;;;;11.21;84.20;95271.27;111465;1249;22532;-89
2024/03/11 04:01:18;;;;;;;;;;;;;;;11.22;83.89;95267.83;111447;1249;22582;-88
2024/03/11 04:03:44;;;;;;;;;;;;;;;11.24;84.05;95269.31;111480;1249;22477;-89
2024/03/11 04:06:10;;;;;;;;;;;;;;;11.25;84.27;95259.94;111449;1249;22655;-88
2024/03/11 04:08:36;;;;;;;;;;;;;;;11.25;84.28;95271.53;111627;1249;23972;-88
2024/03/11 04:11:02;;;;;;;;;;;;;;;11.24;84.49;95282.98;111639;1248;23133;-88
2024/03/11 04:13:28;;;;;;;;;;;;;;;11.23;84.36;95277.98;111449;1249;23968;-89
2024/03/11 04:15:56;;;;;;;;;;;;;;;11.21;84.90;95294.39;111645;1249;22532;-88
2024/03/11 04:18:23;;;;;;;;;;;;;;;11.15;85.33;95288.40;111629;1249;25353;-88
2024/03/11 04:20:55;;;;;;;;;;;;;;;11.11;85.27;95307.16;111430;1249;22475;-88
2024/03/11 04:23:26;;;;;;;;;;;;;;;11.10;85.10;95321.52;111592;1249;22516;-88
2024/03/11 04:25:51;;;;;;;;;;;;;;;11.12;85.11;95332.70;111401;1248;22481;-88
2024/03/11 04:28:18;;;;;;;;;;;;;;;11.12;85.43;95332.66;111460;1249;22505;-88
2024/03/11 04:30:48;;;;;;;;;;;;;;;11.11;85.55;95344.27;111605;1249;22792;-88
2024/03/11 04:33:16;;;;;;;;;;;;;;;11.08;86.23;95353.14;112956;1249;22582;-88
2024/03/11 04:35:42;;;;;;;;;;;;;;;11.03;86.54;95356.58;112786;1249;22603;-86
2024/03/11 04:38:08;;;;;;;;;;;;;;;10.97;87.16;95376.70;111600;1249;22513;-86
2024/03/11 04:40:38;;;;;;;;;;;;;;;10.97;86.48;95378.27;111621;1248;22554;-85
2024/03/11 04:43:03;;;;;;;;;;;;;;;10.98;86.60;95373.02;111384;1248;22521;-86
2024/03/11 04:45:30;;;;;;;;;;;;;;;11.00;87.28;95384.98;111642;1246;24526;-86
2024/03/11 04:47:59;;;;;;;;;;;;;;;10.93;88.06;95379.77;111582;1249;22533;-86
2024/03/11 04:50:25;;;;;;;;;;;;;;;10.83;89.13;95387.92;111583;1249;22789;-86
2024/03/11 04:52:55;;;;;;;;;;;;;;;10.75;88.85;95380.83;111571;1249;22520;-86
2024/03/11 04:55:20;;;;;;;;;;;;;;;10.71;89.55;95368.59;111557;1249;23126;-85
2024/03/11 04:57:47;;;;;;;;;;;;;;;10.61;90.53;95382.23;111594;1249;22514;-86
2024/03/11 05:00:13;;;;;;;;;;;;;;;10.53;90.41;95383.17;111605;1249;25366;-89
2024/03/11 05:02:39;;;;;;;;;;;;;;;10.48;91.88;95390.03;111469;1249;22525;-88
2024/03/11 05:05:07;;;;;;;;;;;;;;;10.44;90.56;95380.27;111581;1249;25254;-89
2024/03/11 05:07:34;;;;;;;;;;;;;;;10.52;90.77;95388.24;111690;1249;25172;-89
2024/03/11 05:09:59;;;;;;;;;;;;;;;10.50;91.81;95391.77;111611;1249;22472;-88
2024/03/11 05:12:25;;;;;;;;;;;;;;;10.44;91.82;95407.02;111567;1249;23768;-89
2024/03/11 05:14:51;;;;;;;;;;;;;;;10.47;89.98;95409.58;111673;1249;23123;-88
2024/03/11 05:17:17;;;;;;;;;;;;;;;10.59;89.93;95407.45;111663;1249;22480;-89
2024/03/11 05:19:42;;;;;;;;;;;;;;;10.64;90.06;95405.92;111645;1249;23133;-88
2024/03/11 05:22:09;;;;;;;;;;;;;;;10.65;89.35;95406.07;111624;1249;22482;-88
2024/03/11 05:24:38;;;;;;;;;;;;;;;10.71;89.48;95406.71;111717;1249;25226;-88
2024/03/11 05:27:06;;;;;;;;;;;;;;;10.71;90.21;95407.56;111477;1249;22525;-88
2024/03/11 05:29:32;;;;;;;;;;;;;;;10.69;89.15;95401.30;111598;1249;23829;-88
2024/03/11 05:31:58;;;;;;;;;;;;;;;10.71;89.83;95397.68;111623;1249;23082;-89
2024/03/11 05:34:24;;;;;;;;;;;;;;;10.64;90.97;95402.56;111453;1248;24202;-88
2024/03/11 05:36:50;;;;;;;;;;;;;;;10.53;90.35;95407.55;111473;1249;22471;-88
2024/03/11 05:39:16;;;;;;;;;;;;;;;10.51;91.95;95410.95;111476;1249;23128;-88
2024/03/11 05:41:44;;;;;;;;;;;;;;;10.41;92.62;95404.43;111496;1248;22440;-88
2024/03/11 05:44:09;;;;;;;;;;;;;;;10.35;92.31;95411.71;111456;1249;22567;-88
2024/03/11 05:46:35;;;;;;;;;;;;;;;10.32;93.36;95409.21;111594;1249;22524;-88
2024/03/11 05:49:01;;;;;;;;;;;;;;;10.29;94.37;95409.90;111449;1249;23112;-88
2024/03/11 05:51:28;;;;;;;;;;;;;;;10.24;95.06;95410.26;111563;1249;22497;-88
2024/03/11 05:53:56;;;;;;;;;;;;;;;10.16;95.61;95407.81;111575;1249;22500;-88
2024/03/11 05:56:22;;;;;;;;;;;;;;;10.07;96.50;95406.77;111396;1248;22607;-88
2024/03/11 05:58:50;;;;;;;;;;;;;;;9.98;97.49;95421.85;111464;1249;22483;-88
2024/03/11 06:01:16;;;;;;;;;;;;;;;9.86;98.16;95436.58;111429;1249;23559;-88
2024/03/11 06:03:42;;;;;;;;;;;;;;;9.81;98.76;95437.90;111478;1249;23302;-88
2024/03/11 06:06:08;;;;;;;;;;;;;;;9.75;98.88;95440.36;111578;1249;22555;-88
2024/03/11 06:08:34;;;;;;;;;;;;;;;9.73;99.54;95436.05;111581;1249;22541;-88
2024/03/11 06:11:00;;;;;;;;;;;;;;;9.72;100.00;95435.33;111584;1249;23212;-88
2024/03/11 06:13:26;;;;;;;;;;;;;;;9.69;100.00;95435.94;111659;1249;23797;-88
2024/03/11 06:15:53;;;;;;;;;;;;;;;9.70;100.00;95437.17;111573;1249;22478;-87
2024/03/11 06:18:18;;;;;;;;;;;;;;;9.70;100.00;95439.84;111611;1249;22530;-88
2024/03/11 06:20:45;;;;;;;;;;;;;;;9.69;100.00;95440.73;111579;1249;22462;-89
2024/03/11 06:23:11;;;;;;;;;;;;;;;9.72;100.00;95441.40;111504;1249;23489;-87
2024/03/11 06:25:37;;;;;;;;;;;;;;;9.76;100.00;95446.64;111599;1249;23589;-88
2024/03/11 06:28:04;;;;;;;;;;;;;;;9.79;100.00;95447.56;111485;1249;22780;-88
2024/03/11 06:30:30;;;;;;;;;;;;;;;9.83;100.00;95446.04;111533;1249;23818;-87
2024/03/11 06:32:56;;;;;;;;;;;;;;;9.88;100.00;95449.86;111576;1247;22461;-88
2024/03/11 06:35:22;;;;;;;;;;;;;;;9.92;100.00;95455.02;111658;1249;22538;-88
2024/03/11 06:37:48;;;;;;;;;;;;;;;9.97;100.00;95458.79;111591;1249;25034;-89
2024/03/11 06:40:17;;;;;;;;;;;;;;;10.00;100.00;95458.94;111448;1249;23214;-87
2024/03/11 06:42:48;;;;;;;;;;;;;;;10.03;100.00;95455.46;111556;1249;22515;-88
2024/03/11 06:45:14;;;;;;;;;;;;;;;10.07;100.00;95454.85;112980;1249;22382;-88
2024/03/11 06:47:41;;;;;;;;;;;;;;;10.08;100.00;95456.40;112310;1249;23091;-88
2024/03/11 06:50:07;;;;;;;;;;;;;;;10.10;100.00;95460.70;111450;1248;22481;-88
2024/03/11 06:52:34;;;;;;;;;;;;;;;10.14;100.00;95461.85;111604;1249;22494;-87
2024/03/11 06:55:00;;;;;;;;;;;;;;;10.19;100.00;95467.02;111448;1249;22492;-88
2024/03/11 06:57:26;;;;;;;;;;;;;;;10.25;100.00;95481.05;111435;1249;22700;-88
2024/03/11 06:59:51;;;;;;;;;;;;;;;10.33;100.00;95480.04;111477;1249;22573;-87
2024/03/11 07:02:20;;;;;;;;;;;;;;;10.43;98.74;95478.50;111464;1249;22538;-88
2024/03/11 07:04:46;;;;;;;;;;;;;;;10.55;98.07;95472.95;112832;1249;22440;-88
2024/03/11 07:07:12;;;;;;;;;;;;;;;10.65;97.36;95481.85;112614;1249;22525;-88
2024/03/11 07:09:38;;;;;;;;;;;;;;;10.74;97.32;95478.52;111574;1249;22479;-88
2024/03/11 07:12:04;;;;;;;;;;;;;;;10.81;96.41;95482.77;111581;1249;22481;-88
2024/03/11 07:14:30;;;;;;;;;;;;;;;10.88;94.99;95485.66;111455;1249;22707;-88
2024/03/11 07:16:57;;;;;;;;;;;;;;;10.95;95.17;95493.56;111547;1249;22709;-88
2024/03/11 07:19:26;;;;;;;;;;;;;;;11.00;94.26;95488.02;111483;1245;25276;-87
2024/03/11 07:21:53;;;;;;;;;;;;;;;11.05;94.08;95494.27;111568;1249;25346;-88
2024/03/11 07:24:19;;;;;;;;;;;;;;;11.09;93.53;95486.48;111446;1249;22888;-89
2024/03/11 07:26:45;;;;;;;;;;;;;;;11.12;93.04;95493.98;111442;1249;23153;-87
2024/03/11 07:29:11;;;;;;;;;;;;;;;11.15;92.86;95498.48;111460;1249;22653;-88
2024/03/11 07:31:38;;;;;;;;;;;;;;;11.19;92.78;95502.14;111666;1249;22899;-87
2024/03/11 07:34:04;;;;;;;;;;;;;;;11.20;92.41;95499.33;111484;1249;22484;-88
2024/03/11 07:36:30;;;;;;;;;;;;;;;11.23;93.48;95499.93;111546;1249;22484;-86
2024/03/11 07:38:56;;;;;;;;;;;;;;;11.25;92.02;95504.57;111453;1249;24167;-86
2024/03/11 07:41:24;;;;;;;;;;;;;;;11.28;91.36;95504.55;111461;1249;22498;-86
2024/03/11 07:43:51;;;;;;;;;;;;;;;11.31;91.95;95502.85;111470;1249;23225;-86
2024/03/11 07:46:16;;;;;;;;;;;;;;;11.34;91.64;95505.48;111452;1241;25219;-85
2024/03/11 07:48:42;;;;;;;;;;;;;;;11.36;90.55;95504.73;111695;1249;24210;-85
2024/03/11 07:51:08;;;;;;;;;;;;;;;11.39;90.93;95508.70;111564;1249;25234;-85
2024/03/11 07:53:34;;;;;;;;;;;;;;;11.41;90.99;95514.02;111527;1249;22550;-86
2024/03/11 07:56:02;;;;;;;;;;;;;;;11.42;90.68;95516.02;111531;1249;24122;-86
2024/03/11 07:58:28;;;;;;;;;;;;;;;11.43;90.46;95520.64;111558;1249;25218;-86
2024/03/11 08:00:54;;;;;;;;;;;;;;;11.45;90.13;95524.40;111418;1249;22473;-86
2024/03/11 08:03:20;;;;;;;;;;;;;;;11.46;89.01;95523.16;111638;1245;22477;-85
2024/03/11 08:05:46;;;;;;;;;;;;;;;11.47;89.49;95524.30;111551;1249;22539;-86
2024/03/11 08:08:12;;;;;;;;;;;;;;;11.49;89.80;95526.26;111503;1249;25899;-86
2024/03/11 08:10:37;;;;;;;;;;;;;;;11.52;88.91;95532.36;111400;1249;22474;-85
2024/03/11 08:13:04;;;;;;;;;;;;;;;11.54;88.81;95531.27;111655;1249;22548;-86
2024/03/11 08:15:30;;;;;;;;;;;;;;;11.57;88.88;95537.00;111418;1249;22475;-85
2024/03/11 08:17:55;;;;;;;;;;;;;;;11.59;88.53;95536.49;111527;1249;23247;-85
2024/03/11 08:20:21;;;;;;;;;;;;;;;11.62;88.32;95540.60;111434;1249;22530;-86
2024/03/11 08:22:47;;;;;;;;;;;;;;;11.65;88.00;95537.09;111514;1249;25226;-86
2024/03/11 08:25:17;;;;;;;;;;;;;;;11.68;88.10;95535.95;111525;1249;22431;-85
2024/03/11 08:27:43;;;;;;;;;;;;;;;11.72;87.76;95534.63;111451;1249;22563;-86
2024/03/11 08:30:12;;;;;;;;;;;;;;;11.75;87.36;95531.13;111446;1249;22477;-86
2024/03/11 08:32:38;;;;;;;;;;;;;;;11.78;87.31;95529.07;111693;1247;23724;-85
2024/03/11 08:35:04;;;;;;;;;;;;;;;11.81;86.99;95532.71;111650;1249;24326;-86
2024/03/11 08:37:30;;;;;;;;;;;;;;;11.83;87.10;95530.54;111665;1249;22399;-86
2024/03/11 08:39:56;;;;;;;;;;;;;;;11.86;86.96;95533.30;111693;1246;23292;-86
2024/03/11 08:42:23;;;;;;;;;;;;;;;11.90;85.86;95529.39;111658;1249;22536;-86
2024/03/11 08:44:51;;;;;;;;;;;;;;;11.95;86.58;95529.06;111509;1249;25303;-86
2024/03/11 08:47:17;;;;;;;;;;;;;;;11.99;85.96;95534.35;111415;1249;22486;-86
2024/03/11 08:49:44;;;;;;;;;;;;;;;12.02;84.92;95536.48;111435;1249;23918;-86
2024/03/11 08:52:12;;;;;;;;;;;;;;;12.06;85.19;95535.13;111491;1249;22518;-85
2024/03/11 08:54:40;;;;;;;;;;;;;;;12.12;85.85;95534.71;111416;1249;22513;-85
2024/03/11 08:57:08;;;;;;;;;;;;;;;12.18;86.21;95537.30;111509;1249;22518;-86
2024/03/11 08:59:35;;;;;;;;;;;;;;;12.21;85.28;95540.59;111522;1249;22590;-86
2024/03/11 09:02:01;;;;;;;;;;;;;;;12.23;84.76;95541.45;111532;1249;22520;-85
2024/03/11 09:04:29;;;;;;;;;;;;;;;12.24;83.97;95543.04;111518;1249;22524;-85
2024/03/11 09:06:57;;;;;;;;;;;;;;;12.26;84.10;95545.70;111560;1249;22448;-86
2024/03/11 09:09:26;;;;;;;;;;;;;;;12.27;83.65;95549.89;111432;1249;24179;-85
2024/03/11 09:11:58;;;;;;;;;;;;;;;12.27;83.70;95544.37;111519;1249;22483;-86
2024/03/11 09:14:25;;;;;;;;;;;;;;;12.27;83.93;95543.70;111456;1249;24265;-85
2024/03/11 09:16:54;;;;;;;;;;;;;;;12.27;83.66;95548.82;111508;1249;25349;-86
2024/03/11 09:19:26;;;;;;;;;;;;;;;12.27;83.18;95545.10;111434;1249;23119;-86
2024/03/11 09:21:52;;;;;;;;;;;;;;;12.27;83.26;95543.29;111436;1249;22716;-86
2024/03/11 09:24:22;;;;;;;;;;;;;;;12.27;82.41;95537.29;111276;1249;219360;-86
2024/03/11 09:26:49;;;;;;;;;;;;;;;12.28;82.16;95541.33;111427;1249;22478;-86
2024/03/11 09:29:18;;;;;;;;;;;;;;;12.29;82.18;95548.20;111518;1249;22570;-86
2024/03/11 09:31:46;;;;;;;;;;;;;;;12.31;81.72;95541.58;111475;1249;23793;-86
2024/03/11 09:34:12;;;;;;;;;;;;;;;12.30;81.40;95536.77;111474;1249;22629;-85
2024/03/11 09:36:38;;;;;;;;;;;;;;;12.29;81.12;95543.35;111426;1249;22399;-86
2024/03/11 09:39:05;;;;;;;;;;;;;;;12.29;81.34;95542.98;111452;1249;23319;-85
2024/03/11 09:41:39;;;;;;;;;;;;;;;12.29;81.28;95539.02;111627;1249;22479;-85
2024/03/11 09:44:05;;;;;;;;;;;;;;;12.30;81.06;95544.11;111501;1249;25202;-86
2024/03/11 09:46:31;;;;;;;;;;;;;;;12.31;81.42;95547.22;111674;1249;22573;-86
2024/03/11 09:48:57;;;;;;;;;;;;;;;12.31;81.23;95554.88;111551;1249;22488;-85
2024/03/11 09:51:23;;;;;;;;;;;;;;;12.33;80.95;95553.41;111726;1249;22527;-86
2024/03/11 09:53:52;;;;;;;;;;;;;;;12.36;81.16;95553.43;111456;1249;22490;-86
2024/03/11 09:56:19;;;;;;;;;;;;;;;12.38;81.59;95545.10;111463;1249;22476;-85
2024/03/11 09:58:45;;;;;;;;;;;;;;;12.41;82.11;95550.16;111434;1249;22478;-86
2024/03/11 10:01:11;;;;;;;;;;;;;;;12.42;81.43;95547.14;111417;1249;25361;-86
2024/03/11 10:03:37;;;;;;;;;;;;;;;12.43;81.81;95548.10;111512;1249;23831;-85
2024/03/11 10:06:07;;;;;;;;;;;;;;;12.44;81.67;95554.27;111433;1249;24148;-86
2024/03/11 10:08:35;;;;;;;;;;;;;;;12.44;81.23;95553.30;111669;1249;22689;-86
2024/03/11 10:11:08;;;;;;;;;;;;;;;12.45;81.62;95555.98;111438;1249;22450;-85
2024/03/11 10:13:34;;;;;;;;;;;;;;;12.43;81.03;95557.48;111497;1249;22507;-86
2024/03/11 10:16:24;;;;;;;;;;;;;;;12.40;81.01;95555.98;111426;1249;22680;-86
2024/03/11 10:18:55;;;;;;;;;;;;;;;12.37;80.53;95556.92;111684;1249;24853;-85
2024/03/11 10:21:20;;;;;;;;;;;;;;;12.34;80.74;95555.70;111495;1249;23612;-85
2024/03/11 10:23:48;;;;;;;;;;;;;;;12.33;81.40;95556.07;111664;1249;22507;-86
2024/03/11 10:26:17;;;;;;;;;;;;;;;12.32;81.19;95559.27;111676;1249;22484;-85
2024/03/11 10:28:49;;;;;;;;;;;;;;;12.30;81.91;95557.02;111494;1249;24665;-85
2024/03/11 10:31:23;;;;;;;;;;;;;;;12.27;82.49;95561.09;111491;1249;22571;-86
2024/03/11 10:33:53;;;;;;;;;;;;;;;12.23;82.74;95559.73;111669;1249;22581;-86
2024/03/11 10:36:20;;;;;;;;;;;;;;;12.19;82.35;95561.86;111721;1249;22572;-85
2024/03/11 10:38:47;;;;;;;;;;;;;;;12.17;83.63;95560.59;111442;1249;24179;-86
2024/03/11 10:41:20;;;;;;;;;;;;;;;12.15;83.81;95561.48;111690;1249;25261;-86
2024/03/11 10:43:51;;;;;;;;;;;;;;;12.15;84.48;95562.12;111510;1245;23236;-86
2024/03/11 10:46:18;;;;;;;;;;;;;;;12.17;84.31;95561.86;111404;1249;22623;-86
2024/03/11 10:48:46;;;;;;;;;;;;;;;12.18;83.98;95561.30;111537;1249;22591;-86
2024/03/11 10:51:15;;;;;;;;;;;;;;;12.17;84.39;95565.52;111526;1249;22555;-86
2024/03/11 10:53:42;;;;;;;;;;;;;;;12.18;84.01;95560.26;111484;1249;25398;-85
2024/03/11 10:56:10;;;;;;;;;;;;;;;12.18;84.69;95560.42;111674;1249;22507;-85
2024/03/11 10:58:36;;;;;;;;;;;;;;;12.16;84.71;95561.67;111662;1249;22482;-85
2024/03/11 11:01:02;;;;;;;;;;;;;;;12.13;84.54;95562.78;111473;1245;22488;-86
2024/03/11 11:03:30;;;;;;;;;;;;;;;12.13;84.44;95562.05;111500;1249;22516;-85
2024/03/11 11:06:14;;;;;;;;;;;;;;;12.14;84.60;95563.70;111475;1249;22568;-85
2024/03/11 11:08:42;;;;;;;;;;;;;;;12.16;85.22;95561.04;111516;1249;22515;-86
2024/03/11 11:11:17;;;;;;;;;;;;;;;12.17;85.74;95562.31;111528;1249;22512;-85
2024/03/11 11:13:46;;;;;;;;;;;;;;;12.18;85.39;95556.69;111700;1249;25177;-86
2024/03/11 11:16:13;;;;;;;;;;;;;;;12.20;85.47;95549.39;111694;1247;22470;-86
2024/03/11 11:18:39;;;;;;;;;;;;;;;12.19;85.44;95550.04;111487;1248;22561;-86
2024/03/11 11:21:08;;;;;;;;;;;;;;;12.16;85.09;95557.39;111677;1249;22492;-85
2024/03/11 11:23:34;;;;;;;;;;;;;;;12.10;85.99;95546.55;111505;1249;22477;-86
2024/03/11 11:26:01;;;;;;;;;;;;;;;12.03;86.27;95551.64;111690;1249;22521;-85
2024/03/11 11:28:36;;;;;;;;;;;;;;;11.99;86.55;95550.45;111677;1247;22483;-86
2024/03/11 11:31:14;;;;;;;;;;;;;;;11.96;86.03;95551.60;112900;1249;22374;-86
2024/03/11 11:33:58;;;;;;;;;;;;;;;11.96;87.88;95557.85;113065;1249;22330;-87
2024/03/11 11:36:30;;;;;;;;;;;;;;;11.95;88.37;95558.82;113076;1249;22405;-86
2024/03/11 11:38:58;;;;;;;;;;;;;;;11.95;89.13;95560.27;113098;1249;22431;-86
2024/03/11 11:41:34;;;;;;;;;;;;;;;11.94;89.60;95564.51;112924;1249;22342;-86
2024/03/11 11:44:00;;;;;;;;;;;;;;;11.90;89.84;95567.52;113073;1249;22396;-86
2024/03/11 11:46:40;;;;;;;;;;;;;;;11.89;90.84;95574.44;112910;1249;23068;-87
2024/03/11 11:49:18;;;;;;;;;;;;;;;11.85;89.19;95577.93;112843;1249;22188;-86
2024/03/11 11:51:47;;;;;;;;;;;;;;;11.85;90.90;95581.46;113077;1249;22500;-86
2024/03/11 11:54:16;;;;;;;;;;;;;;;11.85;92.18;95580.21;113083;1249;22416;-87
2024/03/11 11:56:42;;;;;;;;;;;;;;;11.84;91.88;95577.86;113080;1249;22368;-86
2024/03/11 11:59:08;;;;;;;;;;;;;;;11.84;92.97;95577.02;113093;1241;22325;-86
2024/03/11 12:01:48;;;;;;;;;;;;;;;11.89;93.44;95578.33;113071;1249;22317;-86
2024/03/11 12:04:14;;;;;;;;;;;;;;;11.91;92.61;95569.27;112061;1249;22482;-86
2024/03/11 12:06:40;;;;;;;;;;;;;;;11.91;93.78;95571.95;111692;1249;22904;-86
2024/03/11 12:09:12;;;;;;;;;;;;;;;11.90;94.49;95561.70;111694;1249;22507;-86
2024/03/11 12:11:45;;;;;;;;;;;;;;;11.91;95.53;95567.95;113087;1249;22236;-86
2024/03/11 12:14:11;;;;;;;;;;;;;;;11.96;96.05;95566.51;113062;1246;22410;-86
2024/03/11 12:16:38;;;;;;;;;;;;;;;12.04;97.08;95563.89;112892;1248;22372;-86
2024/03/11 12:19:09;;;;;;;;;;;;;;;12.02;95.51;95563.14;112835;1249;22335;-86
2024/03/11 12:21:39;;;;;;;;;;;;;;;11.91;96.39;95566.38;113099;1241;22303;-86
2024/03/11 12:24:09;;;;;;;;;;;;;;;11.84;97.27;95567.48;112106;1249;24287;-85
2024/03/11 12:26:35;;;;;;;;;;;;;;;11.81;97.40;95567.90;111719;1247;22536;-85
2024/03/11 12:29:05;;;;;;;;;;;;;;;11.84;98.37;95570.81;111674;1249;22632;-87
2024/03/11 12:31:34;;;;;;;;;;;;;;;11.86;98.96;95569.84;111449;1249;22609;-88
2024/03/11 12:34:08;;;;;;;;;;;;;;;11.86;99.69;95564.06;111520;1247;23594;-87
2024/03/11 12:36:39;;;;;;;;;;;;;;;11.82;100.00;95567.58;111499;1249;22424;-87